sensor_id;sensor_type;location;lat;lon;timestamp;P1;P2;P0
55043;PMS5003;54902;50.420;18.854;2023-05-27T00:00:30;7;5;4
55043;PMS5003;54902;50.420;18.854;2023-05-27T00:01:19;6;4;3
55043;PMS5003;54902;50.420;18.854;2023-05-27T00:01:50;4;4;3
55043;PMS5003;54902;50.420;18.854;2023-05-27T00:02:21;4;4;3
55043;PMS5003;54902;50.420;18.854;2023-05-27T00:02:52;4;4;3
55043;PMS5003;54902;50.420;18.854;2023-05-27T00:03:23;4;4;3
55043;PMS5003;54902;50.420;18.854;2023-05-27T00:03:54;4;4;3
55043;PMS5003;54902;50.420;18.854;2023-05-27T00:04:25;4;4;3
55043;PMS5003;54902;50.420;18.854;2023-05-27T00:04:56;4;4;3
55043;PMS5003;54902;50.420;18.854;2023-05-27T00:05:27;4;4;3
55043;PMS5003;54902;50.420;18.854;2023-05-27T00:06:00;4;4;3
55043;PMS5003;54902;50.420;18.854;2023-05-27T00:06:31;4;4;3
55043;PMS5003;54902;50.420;18.854;2023-05-27T00:07:02;7;7;5
55043;PMS5003;54902;50.420;18.854;2023-05-27T00:07:33;7;7;5
55043;PMS5003;54902;50.420;18.854;2023-05-27T00:08:04;7;7;5
55043;PMS5003;54902;50.420;18.854;2023-05-27T00:08:36;7;7;5
55043;PMS5003;54902;50.420;18.854;2023-05-27T00:09:07;7;7;5
55043;PMS5003;54902;50.420;18.854;2023-05-27T00:09:38;7;7;5
55043;PMS5003;54902;50.420;18.854;2023-05-27T00:10:09;7;7;5
55043;PMS5003;54902;50.420;18.854;2023-05-27T00:10:40;7;7;5
55043;PMS5003;54902;50.420;18.854;2023-05-27T00:11:11;7;7;5
55043;PMS5003;54902;50.420;18.854;2023-05-27T00:11:42;7;7;5
55043;PMS5003;54902;50.420;18.854;2023-05-27T00:12:13;7;7;5
55043;PMS5003;54902;50.420;18.854;2023-05-27T00:12:45;7;7;5
55043;PMS5003;54902;50.420;18.854;2023-05-27T00:13:16;7;7;5
55043;PMS5003;54902;50.420;18.854;2023-05-27T00:13:47;7;7;5
55043;PMS5003;54902;50.420;18.854;2023-05-27T00:14:18;7;7;5
55043;PMS5003;54902;50.420;18.854;2023-05-27T00:14:52;7;7;5
55043;PMS5003;54902;50.420;18.854;2023-05-27T00:15:23;7;7;5
55043;PMS5003;54902;50.420;18.854;2023-05-27T00:15:54;7;7;5
55043;PMS5003;54902;50.420;18.854;2023-05-27T00:16:25;7;7;5
55043;PMS5003;54902;50.420;18.854;2023-05-27T00:16:56;7;7;5
55043;PMS5003;54902;50.420;18.854;2023-05-27T00:17:27;7;7;5
55043;PMS5003;54902;50.420;18.854;2023-05-27T00:17:58;7;7;5
55043;PMS5003;54902;50.420;18.854;2023-05-27T00:18:32;7;7;5
55043;PMS5003;54902;50.420;18.854;2023-05-27T00:19:03;7;7;5
55043;PMS5003;54902;50.420;18.854;2023-05-27T00:19:36;7;7;5
55043;PMS5003;54902;50.420;18.854;2023-05-27T00:20:07;7;7;5
55043;PMS5003;54902;50.420;18.854;2023-05-27T00:20:40;7;7;5
55043;PMS5003;54902;50.420;18.854;2023-05-27T00:21:11;7;7;5
55043;PMS5003;54902;50.420;18.854;2023-05-27T00:21:42;7;7;5
55043;PMS5003;54902;50.420;18.854;2023-05-27T00:22:13;7;7;5
55043;PMS5003;54902;50.420;18.854;2023-05-27T00:22:45;7;7;5
55043;PMS5003;54902;50.420;18.854;2023-05-27T00:23:19;7;7;5
55043;PMS5003;54902;50.420;18.854;2023-05-27T00:23:51;7;7;5
55043;PMS5003;54902;50.420;18.854;2023-05-27T00:24:22;7;7;5
55043;PMS5003;54902;50.420;18.854;2023-05-27T00:24:53;7;7;5
55043;PMS5003;54902;50.420;18.854;2023-05-27T00:25:24;7;7;5
55043;PMS5003;54902;50.420;18.854;2023-05-27T00:25:55;7;7;5
55043;PMS5003;54902;50.420;18.854;2023-05-27T00:26:27;7;7;5
55043;PMS5003;54902;50.420;18.854;2023-05-27T00:26:58;7;7;5
55043;PMS5003;54902;50.420;18.854;2023-05-27T00:27:29;7;7;5
55043;PMS5003;54902;50.420;18.854;2023-05-27T00:28:00;7;7;5
55043;PMS5003;54902;50.420;18.854;2023-05-27T00:28:34;7;7;5
55043;PMS5003;54902;50.420;18.854;2023-05-27T00:29:05;7;7;5
55043;PMS5003;54902;50.420;18.854;2023-05-27T00:29:36;7;7;5
55043;PMS5003;54902;50.420;18.854;2023-05-27T00:30:07;7;7;5
55043;PMS5003;54902;50.420;18.854;2023-05-27T00:30:39;7;7;5
55043;PMS5003;54902;50.420;18.854;2023-05-27T00:31:10;7;7;5
55043;PMS5003;54902;50.420;18.854;2023-05-27T00:31:41;7;7;5
55043;PMS5003;54902;50.420;18.854;2023-05-27T00:32:12;7;7;5
55043;PMS5003;54902;50.420;18.854;2023-05-27T00:32:43;6;6;4
55043;PMS5003;54902;50.420;18.854;2023-05-27T00:33:13;7;7;5
55043;PMS5003;54902;50.420;18.854;2023-05-27T00:33:48;7;7;5
55043;PMS5003;54902;50.420;18.854;2023-05-27T00:34:18;7;7;5
55043;PMS5003;54902;50.420;18.854;2023-05-27T00:34:49;7;7;5
55043;PMS5003;54902;50.420;18.854;2023-05-27T00:35:20;7;7;5
55043;PMS5003;54902;50.420;18.854;2023-05-27T00:35:51;7;7;5
55043;PMS5003;54902;50.420;18.854;2023-05-27T00:36:22;7;7;5
55043;PMS5003;54902;50.420;18.854;2023-05-27T00:36:53;7;7;5
55043;PMS5003;54902;50.420;18.854;2023-05-27T00:37:24;7;7;5
55043;PMS5003;54902;50.420;18.854;2023-05-27T00:37:55;7;7;5
55043;PMS5003;54902;50.420;18.854;2023-05-27T00:38:26;10;10;7
55043;PMS5003;54902;50.420;18.854;2023-05-27T00:38:57;10;10;7
55043;PMS5003;54902;50.420;18.854;2023-05-27T00:39:28;10;10;7
55043;PMS5003;54902;50.420;18.854;2023-05-27T00:39:59;10;10;7
55043;PMS5003;54902;50.420;18.854;2023-05-27T00:40:35;10;10;7
55043;PMS5003;54902;50.420;18.854;2023-05-27T00:41:12;10;10;7
55043;PMS5003;54902;50.420;18.854;2023-05-27T00:41:46;10;10;7
55043;PMS5003;54902;50.420;18.854;2023-05-27T00:42:20;10;10;7
55043;PMS5003;54902;50.420;18.854;2023-05-27T00:42:51;10;10;7
55043;PMS5003;54902;50.420;18.854;2023-05-27T00:43:22;10;10;7
55043;PMS5003;54902;50.420;18.854;2023-05-27T00:43:53;10;10;7
55043;PMS5003;54902;50.420;18.854;2023-05-27T00:44:25;10;10;7
55043;PMS5003;54902;50.420;18.854;2023-05-27T00:44:56;10;10;7
55043;PMS5003;54902;50.420;18.854;2023-05-27T00:45:28;10;10;7
55043;PMS5003;54902;50.420;18.854;2023-05-27T00:45:59;10;10;7
55043;PMS5003;54902;50.420;18.854;2023-05-27T00:46:30;10;10;7
55043;PMS5003;54902;50.420;18.854;2023-05-27T00:47:01;10;10;7
55043;PMS5003;54902;50.420;18.854;2023-05-27T00:47:32;10;10;7
55043;PMS5003;54902;50.420;18.854;2023-05-27T00:48:03;10;10;7
55043;PMS5003;54902;50.420;18.854;2023-05-27T00:48:35;10;10;7
55043;PMS5003;54902;50.420;18.854;2023-05-27T00:49:06;10;10;7
55043;PMS5003;54902;50.420;18.854;2023-05-27T00:49:37;10;10;7
55043;PMS5003;54902;50.420;18.854;2023-05-27T00:50:09;10;10;7
55043;PMS5003;54902;50.420;18.854;2023-05-27T00:50:40;10;10;7
55043;PMS5003;54902;50.420;18.854;2023-05-27T00:51:11;10;10;7
55043;PMS5003;54902;50.420;18.854;2023-05-27T00:51:42;10;10;7
55043;PMS5003;54902;50.420;18.854;2023-05-27T00:52:13;10;10;7
55043;PMS5003;54902;50.420;18.854;2023-05-27T00:52:44;10;10;7
55043;PMS5003;54902;50.420;18.854;2023-05-27T00:53:15;10;10;7
55043;PMS5003;54902;50.420;18.854;2023-05-27T00:53:47;10;10;7
55043;PMS5003;54902;50.420;18.854;2023-05-27T00:54:18;10;10;7
55043;PMS5003;54902;50.420;18.854;2023-05-27T00:54:53;10;10;7
55043;PMS5003;54902;50.420;18.854;2023-05-27T00:55:27;10;10;7
55043;PMS5003;54902;50.420;18.854;2023-05-27T00:55:57;10;10;7
55043;PMS5003;54902;50.420;18.854;2023-05-27T00:56:30;10;10;7
55043;PMS5003;54902;50.420;18.854;2023-05-27T00:57:01;8;7;5
55043;PMS5003;54902;50.420;18.854;2023-05-27T00:57:32;8;7;5
55043;PMS5003;54902;50.420;18.854;2023-05-27T00:58:04;8;7;5
55043;PMS5003;54902;50.420;18.854;2023-05-27T00:58:37;8;7;5
55043;PMS5003;54902;50.420;18.854;2023-05-27T00:59:08;8;7;5
55043;PMS5003;54902;50.420;18.854;2023-05-27T00:59:39;6;6;3
55043;PMS5003;54902;50.420;18.854;2023-05-27T01:00:10;6;6;3
55043;PMS5003;54902;50.420;18.854;2023-05-27T01:00:42;6;6;3
55043;PMS5003;54902;50.420;18.854;2023-05-27T01:01:13;6;6;3
55043;PMS5003;54902;50.420;18.854;2023-05-27T01:01:44;6;6;3
55043;PMS5003;54902;50.420;18.854;2023-05-27T01:02:15;6;6;3
55043;PMS5003;54902;50.420;18.854;2023-05-27T01:02:46;6;6;3
55043;PMS5003;54902;50.420;18.854;2023-05-27T01:03:18;6;6;3
55043;PMS5003;54902;50.420;18.854;2023-05-27T01:03:50;6;6;3
55043;PMS5003;54902;50.420;18.854;2023-05-27T01:04:24;6;6;3
55043;PMS5003;54902;50.420;18.854;2023-05-27T01:04:56;7;7;4
55043;PMS5003;54902;50.420;18.854;2023-05-27T01:05:27;3;3;2
55043;PMS5003;54902;50.420;18.854;2023-05-27T01:07:36;3;3;2
55043;PMS5003;54902;50.420;18.854;2023-05-27T01:08:14;3;3;2
55043;PMS5003;54902;50.420;18.854;2023-05-27T01:08:54;3;3;2
55043;PMS5003;54902;50.420;18.854;2023-05-27T01:09:39;3;3;2
55043;PMS5003;54902;50.420;18.854;2023-05-27T01:11:04;3;3;2
55043;PMS5003;54902;50.420;18.854;2023-05-27T01:11:43;6;6;4
55043;PMS5003;54902;50.420;18.854;2023-05-27T01:13:52;6;6;4
55043;PMS5003;54902;50.420;18.854;2023-05-27T01:14:29;6;6;4
55043;PMS5003;54902;50.420;18.854;2023-05-27T01:15:02;6;6;4
55043;PMS5003;54902;50.420;18.854;2023-05-27T01:15:37;6;6;4
55043;PMS5003;54902;50.420;18.854;2023-05-27T01:16:16;6;6;4
55043;PMS5003;54902;50.420;18.854;2023-05-27T01:16:47;6;6;4
55043;PMS5003;54902;50.420;18.854;2023-05-27T01:17:22;6;6;4
55043;PMS5003;54902;50.420;18.854;2023-05-27T01:17:56;6;6;4
55043;PMS5003;54902;50.420;18.854;2023-05-27T01:18:32;6;6;4
55043;PMS5003;54902;50.420;18.854;2023-05-27T01:19:07;6;6;4
55043;PMS5003;54902;50.420;18.854;2023-05-27T01:19:46;6;6;4
55043;PMS5003;54902;50.420;18.854;2023-05-27T01:20:20;6;6;4
55043;PMS5003;54902;50.420;18.854;2023-05-27T01:20:52;6;6;4
55043;PMS5003;54902;50.420;18.854;2023-05-27T01:21:29;6;6;4
55043;PMS5003;54902;50.420;18.854;2023-05-27T01:22:01;6;6;4
55043;PMS5003;54902;50.420;18.854;2023-05-27T01:22:33;6;6;4
55043;PMS5003;54902;50.420;18.854;2023-05-27T01:23:07;6;6;4
55043;PMS5003;54902;50.420;18.854;2023-05-27T01:23:42;6;6;4
55043;PMS5003;54902;50.420;18.854;2023-05-27T01:24:13;6;6;4
55043;PMS5003;54902;50.420;18.854;2023-05-27T01:24:44;6;6;4
55043;PMS5003;54902;50.420;18.854;2023-05-27T01:25:16;6;6;4
55043;PMS5003;54902;50.420;18.854;2023-05-27T01:25:47;6;6;4
55043;PMS5003;54902;50.420;18.854;2023-05-27T01:26:18;6;6;4
55043;PMS5003;54902;50.420;18.854;2023-05-27T01:26:49;6;6;4
55043;PMS5003;54902;50.420;18.854;2023-05-27T01:27:20;6;6;4
55043;PMS5003;54902;50.420;18.854;2023-05-27T01:27:55;4;4;3
55043;PMS5003;54902;50.420;18.854;2023-05-27T01:28:26;4;4;3
55043;PMS5003;54902;50.420;18.854;2023-05-27T01:28:57;5;5;4
55043;PMS5003;54902;50.420;18.854;2023-05-27T01:29:29;5;5;4
55043;PMS5003;54902;50.420;18.854;2023-05-27T01:30:01;5;5;4
55043;PMS5003;54902;50.420;18.854;2023-05-27T01:30:33;5;5;4
55043;PMS5003;54902;50.420;18.854;2023-05-27T01:31:54;5;5;4
55043;PMS5003;54902;50.420;18.854;2023-05-27T01:32:37;6;6;5
55043;PMS5003;54902;50.420;18.854;2023-05-27T01:33:15;6;6;5
55043;PMS5003;54902;50.420;18.854;2023-05-27T01:33:55;6;6;4
55043;PMS5003;54902;50.420;18.854;2023-05-27T01:34:36;4;4;4
55043;PMS5003;54902;50.420;18.854;2023-05-27T01:35:55;9;9;6
55043;PMS5003;54902;50.420;18.854;2023-05-27T01:36:39;9;9;6
55043;PMS5003;54902;50.420;18.854;2023-05-27T01:37:16;9;9;6
55043;PMS5003;54902;50.420;18.854;2023-05-27T01:37:51;9;9;6
55043;PMS5003;54902;50.420;18.854;2023-05-27T01:38:24;9;9;6
55043;PMS5003;54902;50.420;18.854;2023-05-27T01:38:59;9;9;6
55043;PMS5003;54902;50.420;18.854;2023-05-27T01:39:34;9;9;6
55043;PMS5003;54902;50.420;18.854;2023-05-27T01:40:07;9;9;6
55043;PMS5003;54902;50.420;18.854;2023-05-27T01:40:39;9;9;6
55043;PMS5003;54902;50.420;18.854;2023-05-27T01:41:11;12;12;8
55043;PMS5003;54902;50.420;18.854;2023-05-27T01:41:46;12;12;8
55043;PMS5003;54902;50.420;18.854;2023-05-27T01:42:17;12;12;8
55043;PMS5003;54902;50.420;18.854;2023-05-27T01:42:51;6;6;4
55043;PMS5003;54902;50.420;18.854;2023-05-27T01:43:22;6;6;4
55043;PMS5003;54902;50.420;18.854;2023-05-27T01:43:54;6;6;4
55043;PMS5003;54902;50.420;18.854;2023-05-27T01:44:25;6;6;4
55043;PMS5003;54902;50.420;18.854;2023-05-27T01:44:57;6;6;4
55043;PMS5003;54902;50.420;18.854;2023-05-27T01:45:30;6;6;4
55043;PMS5003;54902;50.420;18.854;2023-05-27T01:46:03;6;6;4
55043;PMS5003;54902;50.420;18.854;2023-05-27T01:46:34;3;3;2
55043;PMS5003;54902;50.420;18.854;2023-05-27T01:47:05;3;3;2
55043;PMS5003;54902;50.420;18.854;2023-05-27T01:47:36;3;3;2
55043;PMS5003;54902;50.420;18.854;2023-05-27T01:48:07;3;3;2
55043;PMS5003;54902;50.420;18.854;2023-05-27T01:48:39;3;3;2
55043;PMS5003;54902;50.420;18.854;2023-05-27T01:49:10;3;3;2
55043;PMS5003;54902;50.420;18.854;2023-05-27T01:49:41;3;3;2
55043;PMS5003;54902;50.420;18.854;2023-05-27T01:50:12;3;3;2
55043;PMS5003;54902;50.420;18.854;2023-05-27T01:50:43;3;3;2
55043;PMS5003;54902;50.420;18.854;2023-05-27T01:51:14;3;3;2
55043;PMS5003;54902;50.420;18.854;2023-05-27T01:51:45;6;6;4
55043;PMS5003;54902;50.420;18.854;2023-05-27T01:52:17;6;6;4
55043;PMS5003;54902;50.420;18.854;2023-05-27T01:52:48;6;6;4
55043;PMS5003;54902;50.420;18.854;2023-05-27T01:53:20;6;6;4
55043;PMS5003;54902;50.420;18.854;2023-05-27T01:53:51;6;6;4
55043;PMS5003;54902;50.420;18.854;2023-05-27T01:54:22;6;6;4
55043;PMS5003;54902;50.420;18.854;2023-05-27T01:54:53;6;6;4
55043;PMS5003;54902;50.420;18.854;2023-05-27T01:55:24;6;6;4
55043;PMS5003;54902;50.420;18.854;2023-05-27T01:55:54;6;6;4
55043;PMS5003;54902;50.420;18.854;2023-05-27T01:56:26;6;6;4
55043;PMS5003;54902;50.420;18.854;2023-05-27T01:56:57;8;8;5
55043;PMS5003;54902;50.420;18.854;2023-05-27T01:57:28;8;8;5
55043;PMS5003;54902;50.420;18.854;2023-05-27T01:57:59;8;8;5
55043;PMS5003;54902;50.420;18.854;2023-05-27T01:58:30;8;8;5
55043;PMS5003;54902;50.420;18.854;2023-05-27T01:59:01;8;8;5
55043;PMS5003;54902;50.420;18.854;2023-05-27T01:59:32;8;8;5
55043;PMS5003;54902;50.420;18.854;2023-05-27T02:00:05;8;8;5
55043;PMS5003;54902;50.420;18.854;2023-05-27T02:00:43;8;8;5
55043;PMS5003;54902;50.420;18.854;2023-05-27T02:01:13;6;6;4
55043;PMS5003;54902;50.420;18.854;2023-05-27T02:01:44;6;6;4
55043;PMS5003;54902;50.420;18.854;2023-05-27T02:02:15;3;3;2
55043;PMS5003;54902;50.420;18.854;2023-05-27T02:02:46;3;3;2
55043;PMS5003;54902;50.420;18.854;2023-05-27T02:03:17;3;3;2
55043;PMS5003;54902;50.420;18.854;2023-05-27T02:03:48;3;3;2
55043;PMS5003;54902;50.420;18.854;2023-05-27T02:04:19;3;3;2
55043;PMS5003;54902;50.420;18.854;2023-05-27T02:04:50;3;3;2
55043;PMS5003;54902;50.420;18.854;2023-05-27T02:05:21;3;3;2
55043;PMS5003;54902;50.420;18.854;2023-05-27T02:05:52;3;3;2
55043;PMS5003;54902;50.420;18.854;2023-05-27T02:06:23;3;3;2
55043;PMS5003;54902;50.420;18.854;2023-05-27T02:06:54;3;3;2
55043;PMS5003;54902;50.420;18.854;2023-05-27T02:07:25;6;6;4
55043;PMS5003;54902;50.420;18.854;2023-05-27T02:07:58;6;6;4
55043;PMS5003;54902;50.420;18.854;2023-05-27T02:08:29;6;6;4
55043;PMS5003;54902;50.420;18.854;2023-05-27T02:09:00;6;6;4
55043;PMS5003;54902;50.420;18.854;2023-05-27T02:09:31;6;6;4
55043;PMS5003;54902;50.420;18.854;2023-05-27T02:10:02;6;6;4
55043;PMS5003;54902;50.420;18.854;2023-05-27T02:10:33;6;6;4
55043;PMS5003;54902;50.420;18.854;2023-05-27T02:11:04;6;6;4
55043;PMS5003;54902;50.420;18.854;2023-05-27T02:11:35;5;5;3
55043;PMS5003;54902;50.420;18.854;2023-05-27T02:12:07;5;5;3
55043;PMS5003;54902;50.420;18.854;2023-05-27T02:12:38;5;5;4
55043;PMS5003;54902;50.420;18.854;2023-05-27T02:13:10;5;5;4
55043;PMS5003;54902;50.420;18.854;2023-05-27T02:13:41;5;5;4
55043;PMS5003;54902;50.420;18.854;2023-05-27T02:14:13;5;5;4
55043;PMS5003;54902;50.420;18.854;2023-05-27T02:14:44;5;5;4
55043;PMS5003;54902;50.420;18.854;2023-05-27T02:15:15;5;5;4
55043;PMS5003;54902;50.420;18.854;2023-05-27T02:15:46;5;5;4
55043;PMS5003;54902;50.420;18.854;2023-05-27T02:16:17;5;5;4
55043;PMS5003;54902;50.420;18.854;2023-05-27T02:16:51;5;5;4
55043;PMS5003;54902;50.420;18.854;2023-05-27T02:17:22;5;5;4
55043;PMS5003;54902;50.420;18.854;2023-05-27T02:17:54;3;3;2
55043;PMS5003;54902;50.420;18.854;2023-05-27T02:18:26;3;3;2
55043;PMS5003;54902;50.420;18.854;2023-05-27T02:18:57;3;3;2
55043;PMS5003;54902;50.420;18.854;2023-05-27T02:19:28;3;3;2
55043;PMS5003;54902;50.420;18.854;2023-05-27T02:19:59;3;3;2
55043;PMS5003;54902;50.420;18.854;2023-05-27T02:20:30;3;3;2
55043;PMS5003;54902;50.420;18.854;2023-05-27T02:21:01;3;3;2
55043;PMS5003;54902;50.420;18.854;2023-05-27T02:21:36;3;3;2
55043;PMS5003;54902;50.420;18.854;2023-05-27T02:22:07;3;3;2
55043;PMS5003;54902;50.420;18.854;2023-05-27T02:22:38;3;3;2
55043;PMS5003;54902;50.420;18.854;2023-05-27T02:23:09;7;7;6
55043;PMS5003;54902;50.420;18.854;2023-05-27T02:23:40;7;7;6
55043;PMS5003;54902;50.420;18.854;2023-05-27T02:24:11;7;7;6
55043;PMS5003;54902;50.420;18.854;2023-05-27T02:24:42;4;4;3
55043;PMS5003;54902;50.420;18.854;2023-05-27T02:25:13;4;4;3
55043;PMS5003;54902;50.420;18.854;2023-05-27T02:25:44;4;4;3
55043;PMS5003;54902;50.420;18.854;2023-05-27T02:26:14;4;4;3
55043;PMS5003;54902;50.420;18.854;2023-05-27T02:26:45;4;4;3
55043;PMS5003;54902;50.420;18.854;2023-05-27T02:27:16;4;4;3
55043;PMS5003;54902;50.420;18.854;2023-05-27T02:27:47;4;4;3
55043;PMS5003;54902;50.420;18.854;2023-05-27T02:28:21;6;6;5
55043;PMS5003;54902;50.420;18.854;2023-05-27T02:28:52;6;6;5
55043;PMS5003;54902;50.420;18.854;2023-05-27T02:29:22;6;6;5
55043;PMS5003;54902;50.420;18.854;2023-05-27T02:29:53;6;6;5
55043;PMS5003;54902;50.420;18.854;2023-05-27T02:30:25;6;6;5
55043;PMS5003;54902;50.420;18.854;2023-05-27T02:30:57;6;6;5
55043;PMS5003;54902;50.420;18.854;2023-05-27T02:31:29;6;6;5
55043;PMS5003;54902;50.420;18.854;2023-05-27T02:32:00;6;6;5
55043;PMS5003;54902;50.420;18.854;2023-05-27T02:32:31;6;6;5
55043;PMS5003;54902;50.420;18.854;2023-05-27T02:33:03;6;6;5
55043;PMS5003;54902;50.420;18.854;2023-05-27T02:33:34;7;7;6
55043;PMS5003;54902;50.420;18.854;2023-05-27T02:34:05;7;7;6
55043;PMS5003;54902;50.420;18.854;2023-05-27T02:34:36;7;7;6
55043;PMS5003;54902;50.420;18.854;2023-05-27T02:35:08;7;7;6
55043;PMS5003;54902;50.420;18.854;2023-05-27T02:35:39;7;7;6
55043;PMS5003;54902;50.420;18.854;2023-05-27T02:36:10;7;7;6
55043;PMS5003;54902;50.420;18.854;2023-05-27T02:36:41;7;7;6
55043;PMS5003;54902;50.420;18.854;2023-05-27T02:37:13;7;7;6
55043;PMS5003;54902;50.420;18.854;2023-05-27T02:37:44;7;7;6
55043;PMS5003;54902;50.420;18.854;2023-05-27T02:38:15;7;7;6
55043;PMS5003;54902;50.420;18.854;2023-05-27T02:38:46;7;7;6
55043;PMS5003;54902;50.420;18.854;2023-05-27T02:39:17;7;7;6
55043;PMS5003;54902;50.420;18.854;2023-05-27T02:39:47;7;7;6
55043;PMS5003;54902;50.420;18.854;2023-05-27T02:40:59;7;7;6
55043;PMS5003;54902;50.420;18.854;2023-05-27T02:41:30;7;7;6
55043;PMS5003;54902;50.420;18.854;2023-05-27T02:42:01;7;7;6
55043;PMS5003;54902;50.420;18.854;2023-05-27T02:42:33;7;7;6
55043;PMS5003;54902;50.420;18.854;2023-05-27T02:43:03;7;7;6
55043;PMS5003;54902;50.420;18.854;2023-05-27T02:43:35;7;7;6
55043;PMS5003;54902;50.420;18.854;2023-05-27T02:44:06;7;7;6
55043;PMS5003;54902;50.420;18.854;2023-05-27T02:44:37;7;7;6
55043;PMS5003;54902;50.420;18.854;2023-05-27T02:45:08;7;7;6
55043;PMS5003;54902;50.420;18.854;2023-05-27T02:45:39;7;7;6
55043;PMS5003;54902;50.420;18.854;2023-05-27T02:46:10;7;7;6
55043;PMS5003;54902;50.420;18.854;2023-05-27T02:46:41;7;7;6
55043;PMS5003;54902;50.420;18.854;2023-05-27T02:47:12;7;7;6
55043;PMS5003;54902;50.420;18.854;2023-05-27T02:47:43;7;7;6
55043;PMS5003;54902;50.420;18.854;2023-05-27T02:48:13;7;7;6
55043;PMS5003;54902;50.420;18.854;2023-05-27T02:48:45;7;7;6
55043;PMS5003;54902;50.420;18.854;2023-05-27T02:49:17;7;7;6
55043;PMS5003;54902;50.420;18.854;2023-05-27T02:49:49;7;7;6
55043;PMS5003;54902;50.420;18.854;2023-05-27T02:50:20;7;7;6
55043;PMS5003;54902;50.420;18.854;2023-05-27T02:50:51;7;7;6
55043;PMS5003;54902;50.420;18.854;2023-05-27T02:51:22;7;7;6
55043;PMS5003;54902;50.420;18.854;2023-05-27T02:51:53;7;7;6
55043;PMS5003;54902;50.420;18.854;2023-05-27T02:52:24;7;7;6
55043;PMS5003;54902;50.420;18.854;2023-05-27T02:52:55;6;6;5
55043;PMS5003;54902;50.420;18.854;2023-05-27T02:53:26;6;6;5
55043;PMS5003;54902;50.420;18.854;2023-05-27T02:53:57;5;5;4
55043;PMS5003;54902;50.420;18.854;2023-05-27T02:54:28;5;5;4
55043;PMS5003;54902;50.420;18.854;2023-05-27T02:54:59;5;5;4
55043;PMS5003;54902;50.420;18.854;2023-05-27T02:55:30;5;5;4
55043;PMS5003;54902;50.420;18.854;2023-05-27T02:56:01;5;5;4
55043;PMS5003;54902;50.420;18.854;2023-05-27T02:56:32;5;5;4
55043;PMS5003;54902;50.420;18.854;2023-05-27T02:57:03;5;5;4
55043;PMS5003;54902;50.420;18.854;2023-05-27T02:57:34;5;5;4
55043;PMS5003;54902;50.420;18.854;2023-05-27T02:58:05;5;5;4
55043;PMS5003;54902;50.420;18.854;2023-05-27T02:58:38;5;5;4
55043;PMS5003;54902;50.420;18.854;2023-05-27T02:59:09;7;7;6
55043;PMS5003;54902;50.420;18.854;2023-05-27T02:59:40;7;7;6
55043;PMS5003;54902;50.420;18.854;2023-05-27T03:00:11;7;7;6
55043;PMS5003;54902;50.420;18.854;2023-05-27T03:00:44;7;7;6
55043;PMS5003;54902;50.420;18.854;2023-05-27T03:01:15;7;7;6
55043;PMS5003;54902;50.420;18.854;2023-05-27T03:01:46;7;7;6
55043;PMS5003;54902;50.420;18.854;2023-05-27T03:02:17;7;7;6
55043;PMS5003;54902;50.420;18.854;2023-05-27T03:02:48;7;7;6
55043;PMS5003;54902;50.420;18.854;2023-05-27T03:03:19;7;7;6
55043;PMS5003;54902;50.420;18.854;2023-05-27T03:03:50;6;6;5
55043;PMS5003;54902;50.420;18.854;2023-05-27T03:04:21;6;6;4
55043;PMS5003;54902;50.420;18.854;2023-05-27T03:04:52;6;6;4
55043;PMS5003;54902;50.420;18.854;2023-05-27T03:05:31;6;6;4
55043;PMS5003;54902;50.420;18.854;2023-05-27T03:06:02;6;6;4
55043;PMS5003;54902;50.420;18.854;2023-05-27T03:06:33;6;6;4
55043;PMS5003;54902;50.420;18.854;2023-05-27T03:07:08;6;6;4
55043;PMS5003;54902;50.420;18.854;2023-05-27T03:07:39;6;6;4
55043;PMS5003;54902;50.420;18.854;2023-05-27T03:08:11;6;6;4
55043;PMS5003;54902;50.420;18.854;2023-05-27T03:08:42;6;6;4
55043;PMS5003;54902;50.420;18.854;2023-05-27T03:09:13;6;6;4
55043;PMS5003;54902;50.420;18.854;2023-05-27T03:09:44;10;10;7
55043;PMS5003;54902;50.420;18.854;2023-05-27T03:10:15;10;10;7
55043;PMS5003;54902;50.420;18.854;2023-05-27T03:10:46;10;10;7
55043;PMS5003;54902;50.420;18.854;2023-05-27T03:11:17;10;10;7
55043;PMS5003;54902;50.420;18.854;2023-05-27T03:11:48;10;10;7
55043;PMS5003;54902;50.420;18.854;2023-05-27T03:12:19;10;10;7
55043;PMS5003;54902;50.420;18.854;2023-05-27T03:12:50;10;10;7
55043;PMS5003;54902;50.420;18.854;2023-05-27T03:13:22;10;10;7
55043;PMS5003;54902;50.420;18.854;2023-05-27T03:13:53;8;8;6
55043;PMS5003;54902;50.420;18.854;2023-05-27T03:14:23;8;8;6
55043;PMS5003;54902;50.420;18.854;2023-05-27T03:14:54;4;4;4
55043;PMS5003;54902;50.420;18.854;2023-05-27T03:15:25;4;4;4
55043;PMS5003;54902;50.420;18.854;2023-05-27T03:16:01;4;4;4
55043;PMS5003;54902;50.420;18.854;2023-05-27T03:16:32;4;4;4
55043;PMS5003;54902;50.420;18.854;2023-05-27T03:17:04;4;4;4
55043;PMS5003;54902;50.420;18.854;2023-05-27T03:17:35;4;4;4
55043;PMS5003;54902;50.420;18.854;2023-05-27T03:18:08;4;4;4
55043;PMS5003;54902;50.420;18.854;2023-05-27T03:18:39;4;4;4
55043;PMS5003;54902;50.420;18.854;2023-05-27T03:19:10;4;4;4
55043;PMS5003;54902;50.420;18.854;2023-05-27T03:19:40;4;4;4
55043;PMS5003;54902;50.420;18.854;2023-05-27T03:20:12;7;7;6
55043;PMS5003;54902;50.420;18.854;2023-05-27T03:20:43;7;7;6
55043;PMS5003;54902;50.420;18.854;2023-05-27T03:21:14;7;7;6
55043;PMS5003;54902;50.420;18.854;2023-05-27T03:21:45;7;7;6
55043;PMS5003;54902;50.420;18.854;2023-05-27T03:22:16;7;7;6
55043;PMS5003;54902;50.420;18.854;2023-05-27T03:22:47;7;7;6
55043;PMS5003;54902;50.420;18.854;2023-05-27T03:23:18;7;7;6
55043;PMS5003;54902;50.420;18.854;2023-05-27T03:23:49;7;7;6
55043;PMS5003;54902;50.420;18.854;2023-05-27T03:24:20;7;7;6
55043;PMS5003;54902;50.420;18.854;2023-05-27T03:24:51;7;7;6
55043;PMS5003;54902;50.420;18.854;2023-05-27T03:25:24;7;7;6
55043;PMS5003;54902;50.420;18.854;2023-05-27T03:25:56;7;7;6
55043;PMS5003;54902;50.420;18.854;2023-05-27T03:26:26;1;1;1
55043;PMS5003;54902;50.420;18.854;2023-05-27T03:26:58;1;1;1
55043;PMS5003;54902;50.420;18.854;2023-05-27T03:27:29;1;1;1
55043;PMS5003;54902;50.420;18.854;2023-05-27T03:28:00;1;1;1
55043;PMS5003;54902;50.420;18.854;2023-05-27T03:28:31;1;1;1
55043;PMS5003;54902;50.420;18.854;2023-05-27T03:29:02;1;1;1
55043;PMS5003;54902;50.420;18.854;2023-05-27T03:29:33;1;1;1
55043;PMS5003;54902;50.420;18.854;2023-05-27T03:30:05;1;1;1
55043;PMS5003;54902;50.420;18.854;2023-05-27T03:30:37;0;0;0
55043;PMS5003;54902;50.420;18.854;2023-05-27T03:31:08;0;0;0
55043;PMS5003;54902;50.420;18.854;2023-05-27T03:31:43;0;0;0
55043;PMS5003;54902;50.420;18.854;2023-05-27T03:32:14;0;0;0
55043;PMS5003;54902;50.420;18.854;2023-05-27T03:32:45;0;0;0
55043;PMS5003;54902;50.420;18.854;2023-05-27T03:33:16;0;0;0
55043;PMS5003;54902;50.420;18.854;2023-05-27T03:33:47;0;0;0
55043;PMS5003;54902;50.420;18.854;2023-05-27T03:34:20;0;0;0
55043;PMS5003;54902;50.420;18.854;2023-05-27T03:34:51;0;0;0
55043;PMS5003;54902;50.420;18.854;2023-05-27T03:35:21;0;0;0
55043;PMS5003;54902;50.420;18.854;2023-05-27T03:35:52;0;0;0
55043;PMS5003;54902;50.420;18.854;2023-05-27T03:36:26;0;0;0
55043;PMS5003;54902;50.420;18.854;2023-05-27T03:36:57;0;0;0
55043;PMS5003;54902;50.420;18.854;2023-05-27T03:37:28;0;0;0